Time;durP1;ratioP1;P1;durP2;ratioP2;P2;SDS_P1;SDS_P2;PMS_P1;PMS_P2;Temp;Humidity;BMP_temperature;BMP_pressure;BME280_temperature;BME280_humidity;BME280_pressure;Samples;Min_cycle;Max_cycle;Signal;HPM_P1;HPM_P2
2023/02/17 00:01:30;;;;;;;21.80;15.25;;;;;;;7.34;100.00;101120.56;4902127;29;20105;-79
2023/02/17 00:03:58;;;;;;;22.10;15.70;;;;;;;7.37;100.00;101124.09;4901543;29;20479;-80
2023/02/17 00:06:28;;;;;;;21.00;14.25;;;;;;;7.46;100.00;101115.50;4907065;29;20071;-77
2023/02/17 00:08:55;;;;;;;20.90;14.93;;;;;;;7.53;100.00;101117.31;4892409;29;20049;-81
2023/02/17 00:11:22;;;;;;;20.25;15.48;;;;;;;7.54;100.00;101110.41;4898593;29;20102;-78
2023/02/17 00:13:48;;;;;;;21.23;14.02;;;;;;;7.60;100.00;101107.84;4900833;29;20067;-81
2023/02/17 00:16:24;;;;;;;22.05;14.13;;;;;;;7.61;100.00;101120.91;4903222;29;20039;-79
2023/02/17 00:18:57;;;;;;;24.88;15.95;;;;;;;7.61;100.00;101126.13;4904321;29;20499;-79
2023/02/17 00:21:26;;;;;;;19.67;14.57;;;;;;;7.68;100.00;101115.72;4902440;29;20054;-78
2023/02/17 00:24:03;;;;;;;22.50;14.80;;;;;;;7.70;100.00;101109.69;4918976;29;20048;-76
2023/02/17 00:26:42;;;;;;;20.45;13.98;;;;;;;7.69;100.00;101107.06;4914054;29;20792;-78
2023/02/17 00:29:09;;;;;;;19.83;13.77;;;;;;;7.67;100.00;101109.66;4916183;29;20751;-79
2023/02/17 00:31:36;;;;;;;19.42;15.00;;;;;;;7.72;100.00;101104.50;4927207;29;20304;-82
2023/02/17 00:34:03;;;;;;;20.35;14.10;;;;;;;7.67;100.00;101109.66;4905349;29;20055;-83
2023/02/17 00:36:29;;;;;;;22.33;15.18;;;;;;;7.70;100.00;101107.06;4903460;29;20062;-79
2023/02/17 00:38:57;;;;;;;19.00;13.57;;;;;;;7.73;100.00;101101.03;4905684;29;20043;-78
2023/02/17 00:41:26;;;;;;;22.05;14.40;;;;;;;7.79;100.00;101106.31;4900905;29;20043;-78
2023/02/17 00:43:53;;;;;;;17.02;14.00;;;;;;;7.80;100.00;101110.66;4887640;29;20043;-78
2023/02/17 00:46:20;;;;;;;18.35;14.15;;;;;;;7.83;100.00;101099.38;4910298;29;20056;-79
2023/02/17 00:48:48;;;;;;;18.85;13.02;;;;;;;7.82;100.00;101106.31;4912375;29;20050;-82
2023/02/17 00:51:16;;;;;;;16.55;12.07;;;;;;;7.89;100.00;101099.47;4906245;29;20117;-85
2023/02/17 00:53:43;;;;;;;17.48;12.77;;;;;;;7.92;100.00;101107.28;4925523;29;20055;-84
2023/02/17 00:56:10;;;;;;;17.02;12.70;;;;;;;7.92;100.00;101096.88;4892493;29;20063;-78
2023/02/17 00:58:37;;;;;;;17.52;13.23;;;;;;;7.92;100.00;101095.13;4909126;29;20047;-84
2023/02/17 01:01:04;;;;;;;17.45;13.50;;;;;;;7.92;100.00;101095.13;4903172;29;20043;-79
2023/02/17 01:03:31;;;;;;;16.40;12.02;;;;;;;7.97;100.00;101089.97;4901650;29;20048;-78
2023/02/17 01:05:58;;;;;;;17.75;14.07;;;;;;;8.02;100.00;101096.09;4920102;29;20063;-79
2023/02/17 01:08:26;;;;;;;16.83;13.50;;;;;;;8.04;100.00;101090.88;4924368;29;20067;-81
2023/02/17 01:10:53;;;;;;;16.52;13.00;;;;;;;8.01;100.00;101093.47;4905211;29;20044;-77
2023/02/17 01:13:19;;;;;;;15.35;12.07;;;;;;;8.09;100.00;101079.63;4901884;29;20040;-78
2023/02/17 01:15:52;;;;;;;16.45;12.95;;;;;;;8.11;100.00;101084.88;4908325;29;20066;-77
2023/02/17 01:18:23;;;;;;;18.07;12.63;;;;;;;8.11;100.00;101088.34;4908579;29;20408;-78
2023/02/17 01:20:49;;;;;;;16.10;13.48;;;;;;;8.13;100.00;101085.75;4908919;29;20047;-80
2023/02/17 01:23:16;;;;;;;15.23;12.10;;;;;;;8.14;100.00;101084.03;4920059;29;20055;-77
2023/02/17 01:25:46;;;;;;;15.85;12.20;;;;;;;8.17;100.00;101079.69;4904634;29;20040;-78
2023/02/17 01:28:19;;;;;;;14.90;12.35;;;;;;;8.16;100.00;101080.56;4905433;29;20048;-81
2023/02/17 01:30:46;;;;;;;17.60;13.10;;;;;;;8.15;100.00;101068.38;4914409;29;20048;-79
2023/02/17 01:33:12;;;;;;;17.42;12.70;;;;;;;8.19;100.00;101069.28;4927882;29;20149;-79
2023/02/17 01:35:39;;;;;;;17.73;12.48;;;;;;;8.17;100.00;101066.66;4928857;29;20114;-77
2023/02/17 01:38:05;;;;;;;18.23;12.20;;;;;;;8.24;100.00;101050.19;4913191;29;20043;-86
2023/02/17 01:40:32;;;;;;;14.43;12.18;;;;;;;8.24;100.00;101041.50;4924318;29;20047;-80
2023/02/17 01:42:58;;;;;;;15.32;12.55;;;;;;;8.23;100.00;101032.78;4909761;29;20051;-82
2023/02/17 01:45:35;;;;;;;15.68;12.38;;;;;;;8.25;100.00;101030.19;4888841;29;20044;-85
2023/02/17 01:48:14;;;;;;;16.83;13.55;;;;;;;8.26;100.00;101034.53;4927755;29;20040;-78
2023/02/17 01:50:48;;;;;;;15.77;12.05;;;;;;;8.28;100.00;101017.19;4894968;29;20063;-82
2023/02/17 01:53:22;;;;;;;17.65;13.20;;;;;;;8.29;100.00;101024.13;4904212;29;20055;-78
2023/02/17 01:55:49;;;;;;;17.40;13.52;;;;;;;8.31;100.00;101018.94;4907545;29;20058;-79
2023/02/17 01:58:21;;;;;;;17.52;13.18;;;;;;;8.32;100.00;101018.94;4912094;29;20425;-77
2023/02/17 02:00:57;;;;;;;19.15;14.27;;;;;;;8.33;100.00;101014.59;4925375;29;20422;-77
2023/02/17 02:03:24;;;;;;;16.02;12.85;;;;;;;8.33;100.00;101017.19;4908538;29;20370;-79
2023/02/17 02:05:51;;;;;;;15.80;13.38;;;;;;;8.40;100.00;101012.03;4904509;29;20094;-78
2023/02/17 02:08:17;;;;;;;18.42;13.93;;;;;;;8.42;100.00;101012.03;4906961;29;20047;-81
2023/02/17 02:10:44;;;;;;;15.48;12.73;;;;;;;8.46;100.00;101013.84;4910857;29;20063;-78
2023/02/17 02:13:11;;;;;;;18.40;14.57;;;;;;;8.51;100.00;101001.69;4913126;29;20035;-78
2023/02/17 02:16:08;;;;;;;17.75;13.75;;;;;;;8.49;100.00;101008.63;4908604;29;20040;-77
2023/02/17 02:19:07;;;;;;;20.02;14.25;;;;;;;8.58;100.00;101002.59;4901376;29;20046;-78
2023/02/17 02:22:19;;;;;;;18.02;13.32;;;;;;;8.58;100.00;101003.47;4921970;29;20094;-78
2023/02/17 02:25:09;;;;;;;19.23;14.05;;;;;;;8.68;100.00;101003.50;4924869;29;20044;-78
2023/02/17 02:27:51;;;;;;;17.98;13.48;;;;;;;8.74;100.00;100987.88;4907915;29;20506;-79
2023/02/17 02:30:43;;;;;;;22.50;14.13;;;;;;;8.74;100.00;100995.72;4908569;29;20043;-85
2023/02/17 02:33:40;;;;;;;20.20;13.57;;;;;;;8.71;100.00;100993.09;4893843;29;20080;-81
2023/02/17 02:36:22;;;;;;;18.48;13.98;;;;;;;8.70;100.00;100989.59;4909846;29;20048;-80
2023/02/17 02:39:01;;;;;;;16.02;12.13;;;;;;;8.74;100.00;100990.50;4902759;29;20054;-81
2023/02/17 02:41:34;;;;;;;20.35;12.77;;;;;;;8.75;100.00;100977.44;4911920;29;20043;-80
2023/02/17 02:44:06;;;;;;;17.40;12.75;;;;;;;8.78;100.00;100976.56;4911812;29;20103;-83
2023/02/17 02:46:33;;;;;;;21.13;14.70;;;;;;;8.76;100.00;100968.75;4909922;29;20047;-81
2023/02/17 02:49:00;;;;;;;17.77;12.77;;;;;;;8.81;100.00;100968.75;4910662;29;20036;-84
2023/02/17 02:51:53;;;;;;;19.23;12.95;;;;;;;8.81;100.00;100962.66;4908485;29;20050;-77
2023/02/17 02:55:06;;;;;;;18.45;13.23;;;;;;;8.90;100.00;100954.84;4925610;29;20046;-80
2023/02/17 02:57:52;;;;;;;15.52;12.60;;;;;;;8.90;100.00;100950.53;4898446;29;20055;-82
2023/02/17 03:00:59;;;;;;;18.08;12.70;;;;;;;8.98;100.00;100942.69;4911023;29;20103;-78
2023/02/17 03:03:57;;;;;;;17.55;11.80;;;;;;;8.90;100.00;100960.06;4911003;29;20043;-77
2023/02/17 03:06:48;;;;;;;16.83;12.70;;;;;;;8.86;100.00;100940.91;4904309;29;20045;-78
2023/02/17 03:09:24;;;;;;;15.18;11.88;;;;;;;8.87;100.00;100949.63;4908722;29;20074;-77
2023/02/17 03:11:51;;;;;;;17.50;13.70;;;;;;;8.92;100.00;100948.78;4898589;29;20055;-82
2023/02/17 03:14:23;;;;;;;18.27;13.38;;;;;;;8.88;100.00;100943.56;4916593;29;20044;-82
2023/02/17 03:16:51;;;;;;;20.27;14.20;;;;;;;8.88;100.00;100943.56;4902294;29;20094;-77
2023/02/17 03:19:22;;;;;;;16.38;12.65;;;;;;;8.93;100.00;100952.28;4901861;29;20107;-79
2023/02/17 03:22:01;;;;;;;17.67;13.15;;;;;;;8.88;100.00;100928.75;4913995;29;20333;-80
2023/02/17 03:24:27;;;;;;;18.92;13.98;;;;;;;8.88;100.00;100935.72;4932561;29;20050;-82
2023/02/17 03:26:54;;;;;;;17.85;13.75;;;;;;;8.92;100.00;100932.25;4912546;29;20510;-78
2023/02/17 03:29:20;;;;;;;17.95;12.85;;;;;;;8.95;100.00;100927.03;4901731;29;20071;-81
2023/02/17 03:31:47;;;;;;;17.85;14.23;;;;;;;8.92;100.00;100937.47;4931120;29;20518;-77
2023/02/17 03:34:13;;;;;;;18.23;13.15;;;;;;;8.92;100.00;100933.09;4913532;29;20103;-80
2023/02/17 03:36:40;;;;;;;15.65;12.82;;;;;;;8.93;100.00;100937.47;4935573;29;20051;-79
2023/02/17 03:39:06;;;;;;;17.10;13.13;;;;;;;8.96;100.00;100931.38;4907155;29;20506;-80
2023/02/17 03:41:33;;;;;;;17.08;12.65;;;;;;;9.03;100.00;100927.91;4917981;29;20059;-79
2023/02/17 03:43:59;;;;;;;15.60;12.10;;;;;;;9.02;100.00;100918.34;4897101;29;20048;-85
2023/02/17 03:46:26;;;;;;;16.75;13.32;;;;;;;8.93;100.00;100916.59;4911719;29;20040;-81
2023/02/17 03:48:52;;;;;;;15.95;12.27;;;;;;;8.94;100.00;100897.44;4909023;29;20495;-78
2023/02/17 03:51:23;;;;;;;16.65;13.25;;;;;;;8.97;100.00;100900.91;4896350;29;20063;-81
2023/02/17 03:53:51;;;;;;;14.65;12.30;;;;;;;8.91;100.00;100902.63;4929470;29;20044;-79
2023/02/17 03:56:19;;;;;;;14.20;11.57;;;;;;;8.92;100.00;100904.38;4914817;29;20040;-79
2023/02/17 03:58:45;;;;;;;14.82;11.68;;;;;;;8.89;100.00;100912.22;4912248;29;20059;-78
2023/02/17 04:01:12;;;;;;;13.18;11.50;;;;;;;8.91;100.00;100904.38;4897261;29;20043;-82
2023/02/17 04:03:40;;;;;;;13.75;11.48;;;;;;;8.88;100.00;100899.19;4911035;29;20379;-76
2023/02/17 04:06:08;;;;;;;12.75;10.95;;;;;;;8.93;100.00;100905.28;4922956;29;20047;-77
2023/02/17 04:08:34;;;;;;;15.70;11.93;;;;;;;8.91;100.00;100902.63;4927053;29;20054;-84
2023/02/17 04:11:04;;;;;;;14.48;11.93;;;;;;;8.88;100.00;100891.34;4911222;29;20047;-77
2023/02/17 04:13:30;;;;;;;15.23;10.93;;;;;;;8.89;100.00;100890.44;4914710;29;20047;-78
2023/02/17 04:15:57;;;;;;;13.75;12.00;;;;;;;8.94;100.00;100891.34;4911531;29;20131;-80
2023/02/17 04:18:24;;;;;;;16.10;12.23;;;;;;;8.90;100.00;100900.03;4912715;29;20046;-77
2023/02/17 04:20:51;;;;;;;12.45;10.30;;;;;;;8.88;100.00;100894.81;4909536;29;20091;-79
2023/02/17 04:23:18;;;;;;;14.93;12.13;;;;;;;8.91;100.00;100901.78;4907528;29;20051;-83
2023/02/17 04:25:45;;;;;;;14.98;11.68;;;;;;;8.92;100.00;100901.78;4928211;29;20487;-77
2023/02/17 04:28:13;;;;;;;14.00;11.35;;;;;;;8.94;100.00;100896.56;4909274;29;20871;-78
2023/02/17 04:30:44;;;;;;;12.93;11.10;;;;;;;8.94;100.00;100905.28;4928049;29;20099;-78
2023/02/17 04:33:10;;;;;;;12.77;10.85;;;;;;;8.94;100.00;100902.66;4908642;29;20044;-77
2023/02/17 04:35:37;;;;;;;12.77;10.88;;;;;;;8.94;100.00;100902.66;4925864;29;20051;-77
2023/02/17 04:38:03;;;;;;;14.10;10.93;;;;;;;8.98;100.00;100900.91;4910763;29;20039;-85
2023/02/17 04:40:31;;;;;;;14.98;11.48;;;;;;;8.99;100.00;100884.38;4911927;29;20043;-78
2023/02/17 04:42:57;;;;;;;14.35;10.38;;;;;;;8.97;100.00;100883.53;4909996;29;20063;-76
2023/02/17 04:45:24;;;;;;;13.18;11.02;;;;;;;8.94;100.00;100873.06;4908290;29;20043;-79
2023/02/17 04:47:51;;;;;;;14.02;11.80;;;;;;;8.96;100.00;100883.50;4906387;29;20057;-76
2023/02/17 04:50:22;;;;;;;13.40;10.77;;;;;;;8.92;100.00;100878.28;4908136;29;20051;-81
2023/02/17 04:52:49;;;;;;;13.73;10.63;;;;;;;8.93;100.00;100873.94;4907085;29;20043;-79
2023/02/17 04:55:16;;;;;;;12.93;10.55;;;;;;;8.90;100.00;100880.03;4900645;29;20043;-83
2023/02/17 04:57:42;;;;;;;14.88;11.27;;;;;;;8.88;100.00;100871.31;4911243;29;20122;-86
2023/02/17 05:00:10;;;;;;;11.50;9.80;;;;;;;8.85;100.00;100873.94;4910003;29;20083;-79
2023/02/17 05:02:37;;;;;;;14.70;11.50;;;;;;;8.87;100.00;100874.78;4893268;29;20139;-79
2023/02/17 05:05:03;;;;;;;14.48;11.40;;;;;;;8.85;100.00;100878.25;4909271;29;20039;-83
2023/02/17 05:07:30;;;;;;;13.25;11.00;;;;;;;8.85;100.00;100879.16;4895026;29;20066;-78
2023/02/17 05:09:56;;;;;;;13.43;10.70;;;;;;;8.82;100.00;100865.22;4908679;29;20061;-78
2023/02/17 05:12:23;;;;;;;11.60;10.02;;;;;;;8.84;100.00;100853.91;4920375;29;20151;-88
2023/02/17 05:14:49;;;;;;;12.82;9.90;;;;;;;8.83;100.00;100861.75;4908873;29;20060;-79
2023/02/17 05:17:19;;;;;;;14.60;11.00;;;;;;;8.81;100.00;100853.03;4891921;29;20502;-78
2023/02/17 05:19:46;;;;;;;12.80;9.80;;;;;;;8.88;100.00;100854.78;4888943;29;20135;-80
2023/02/17 05:22:12;;;;;;;12.73;10.32;;;;;;;8.88;100.00;100854.78;4908443;29;20146;-84
2023/02/17 05:24:39;;;;;;;14.30;10.57;;;;;;;8.87;100.00;100837.38;4899298;29;20047;-81
2023/02/17 05:27:06;;;;;;;12.00;10.05;;;;;;;8.93;100.00;100840.00;4919625;29;20490;-85
2023/02/17 05:29:32;;;;;;;14.63;10.90;;;;;;;9.02;100.00;100842.63;4921075;29;20688;-81
2023/02/17 05:31:59;;;;;;;14.80;11.13;;;;;;;9.05;100.00;100839.13;4889707;29;20051;-81
2023/02/17 05:34:26;;;;;;;16.35;12.13;;;;;;;9.07;100.00;100834.78;4923746;29;20110;-77
2023/02/17 05:36:52;;;;;;;14.00;10.65;;;;;;;9.12;100.00;100824.34;4919968;29;20534;-78
2023/02/17 05:39:19;;;;;;;16.63;12.23;;;;;;;9.13;100.00;100833.91;4905777;29;20052;-79
2023/02/17 05:41:47;;;;;;;16.52;12.65;;;;;;;9.20;100.00;100830.41;4908278;29;20036;-77
2023/02/17 05:44:13;;;;;;;14.27;10.93;;;;;;;9.30;100.00;100831.31;4905086;29;20050;-79
2023/02/17 05:46:40;;;;;;;15.90;12.63;;;;;;;9.31;100.00;100833.91;4910951;29;20123;-79
2023/02/17 05:49:06;;;;;;;13.70;11.25;;;;;;;9.30;100.00;100821.72;4906120;29;20522;-83
2023/02/17 05:51:33;;;;;;;15.13;12.07;;;;;;;9.37;100.00;100815.63;4900621;29;20366;-82
2023/02/17 05:53:59;;;;;;;16.25;11.77;;;;;;;9.43;100.00;100806.88;4889498;29;20048;-79
2023/02/17 05:56:26;;;;;;;16.70;12.73;;;;;;;9.48;100.00;100796.41;4888366;29;20051;-78
2023/02/17 05:58:52;;;;;;;16.25;13.10;;;;;;;9.46;100.00;100798.19;4905678;29;20130;-78
2023/02/17 06:01:22;;;;;;;18.33;12.90;;;;;;;9.43;100.00;100797.28;4892153;29;20040;-87
2023/02/17 06:03:51;;;;;;;15.63;12.55;;;;;;;9.46;100.00;100787.72;4899076;29;20048;-82
2023/02/17 06:06:38;;;;;;;19.17;12.77;;;;;;;9.47;100.00;100798.16;4914971;29;20494;-79
2023/02/17 06:09:10;;;;;;;16.10;12.07;;;;;;;9.46;100.00;100798.19;4916745;29;20043;-79
2023/02/17 06:12:16;;;;;;;17.77;11.68;;;;;;;9.51;100.00;100807.72;4903515;29;20064;-83
2023/02/17 06:14:42;;;;;;;13.90;11.45;;;;;;;9.48;100.00;100801.63;4917950;29;20043;-79
2023/02/17 06:17:10;;;;;;;16.85;12.32;;;;;;;9.50;100.00;100805.13;4898549;29;20557;-81
2023/02/17 06:19:36;;;;;;;16.08;12.80;;;;;;;9.55;100.00;100812.06;4901998;29;20047;-79
2023/02/17 06:22:03;;;;;;;17.70;13.18;;;;;;;9.58;100.00;100804.25;4907504;29;20073;-80
2023/02/17 06:24:33;;;;;;;18.83;14.15;;;;;;;9.62;100.00;100810.34;4903909;29;20040;-79
2023/02/17 06:27:04;;;;;;;16.30;12.70;;;;;;;9.58;100.00;100816.44;4903551;29;20909;-80
2023/02/17 06:29:31;;;;;;;19.67;14.00;;;;;;;9.62;100.00;100805.13;4898840;29;20415;-82
2023/02/17 06:35:10;;;;;;;18.08;13.07;;;;;;;9.60;100.00;100809.47;4923344;29;20417;-77
2023/02/17 06:37:40;;;;;;;19.90;14.75;;;;;;;9.58;100.00;100792.91;4891152;29;20062;-83
2023/02/17 06:40:12;;;;;;;22.20;15.02;;;;;;;9.59;100.00;100795.53;4905203;29;20055;-80
2023/02/17 06:42:39;;;;;;;20.77;14.95;;;;;;;9.61;100.00;100774.63;4902925;29;20136;-76
2023/02/17 06:45:28;;;;;;;17.92;12.98;;;;;;;9.62;100.00;100772.88;4903851;29;20051;-80
2023/02/17 06:48:01;;;;;;;20.92;14.85;;;;;;;9.64;100.00;100774.59;4899481;29;20731;-82
2023/02/17 06:50:31;;;;;;;20.00;13.73;;;;;;;9.65;100.00;100778.97;4903249;29;20043;-79
2023/02/17 06:52:58;;;;;;;21.27;14.98;;;;;;;9.69;100.00;100774.59;4901199;29;20091;-79
2023/02/17 06:55:25;;;;;;;20.48;15.70;;;;;;;9.66;100.00;100770.25;4885532;29;20156;-80
2023/02/17 06:58:16;;;;;;;21.85;14.88;;;;;;;9.70;100.00;100789.38;4910785;23;20048;-84
2023/02/17 07:00:48;;;;;;;18.58;15.27;;;;;;;9.76;100.00;100776.28;4910645;29;20075;-79
2023/02/17 07:03:30;;;;;;;19.05;14.57;;;;;;;9.72;100.00;100785.88;4885850;29;20043;-79
2023/02/17 07:06:14;;;;;;;19.67;15.80;;;;;;;9.74;100.00;100797.22;4912594;29;20052;-80
2023/02/17 07:08:44;;;;;;;20.15;14.65;;;;;;;9.71;100.00;100793.75;4902617;29;20483;-81
2023/02/17 07:11:18;;;;;;;20.85;15.15;;;;;;;9.77;100.00;100791.13;4903006;29;20043;-76
2023/02/17 07:13:48;;;;;;;21.73;15.48;;;;;;;9.82;100.00;100799.81;4899655;29;20060;-79
2023/02/17 07:16:36;;;;;;;18.88;13.90;;;;;;;9.78;100.00;100805.94;4899550;29;20083;-78
2023/02/17 07:19:02;;;;;;;19.42;13.93;;;;;;;9.78;100.00;100800.69;4921062;28;20043;-79
2023/02/17 07:21:29;;;;;;;22.13;14.50;;;;;;;9.75;100.00;100790.25;4898667;29;20130;-80
2023/02/17 07:23:57;;;;;;;17.75;12.95;;;;;;;9.81;100.00;100773.69;4905894;29;20355;-84
2023/02/17 07:29:10;;;;;;;18.05;13.82;;;;;;;9.87;100.00;100755.34;4906311;29;22618;-80
2023/02/17 07:31:37;;;;;;;18.23;14.10;;;;;;;9.84;100.00;100760.59;4899189;29;20086;-83
2023/02/17 07:34:05;;;;;;;16.42;14.45;;;;;;;9.83;100.00;100767.56;4888996;29;20055;-82
2023/02/17 07:36:31;;;;;;;21.20;15.65;;;;;;;9.85;100.00;100759.72;4908347;29;20066;-78
2023/02/17 07:38:58;;;;;;;22.23;15.48;;;;;;;9.84;100.00;100747.50;4900941;29;20044;-78
2023/02/17 07:41:27;;;;;;;20.63;15.80;;;;;;;9.80;100.00;100744.03;4907089;29;20039;-79
2023/02/17 07:43:55;;;;;;;22.52;15.75;;;;;;;9.78;100.00;100740.56;4899417;29;20068;-79
2023/02/17 07:46:23;;;;;;;18.27;14.55;;;;;;;9.85;100.00;100741.41;4907603;29;20058;-77
2023/02/17 07:48:50;;;;;;;21.58;16.10;;;;;;;9.83;100.00;100757.09;4895863;29;20044;-79
2023/02/17 07:51:22;;;;;;;23.42;15.95;;;;;;;9.90;100.00;100735.28;4889919;29;20052;-82
2023/02/17 07:53:51;;;;;;;22.63;16.70;;;;;;;9.87;100.00;100732.69;4898221;29;20044;-79
2023/02/17 07:56:20;;;;;;;21.02;15.93;;;;;;;9.96;100.00;100729.16;4899889;29;20051;-79
2023/02/17 07:58:47;;;;;;;19.67;15.55;;;;;;;9.94;100.00;100736.13;4893142;29;20139;-79
2023/02/17 08:01:20;;;;;;;24.45;17.00;;;;;;;9.93;100.00;100735.28;4881075;29;20088;-80
2023/02/17 08:03:48;;;;;;;20.42;15.93;;;;;;;9.96;100.00;100725.66;4880413;29;20040;-82
2023/02/17 08:06:21;;;;;;;24.60;18.15;;;;;;;10.01;100.00;100731.75;4882530;29;20048;-79
2023/02/17 08:14:18;;;;;;;21.52;16.55;;;;;;;10.05;100.00;100731.72;4882434;29;20129;-80
2023/02/17 08:16:44;;;;;;;22.10;16.48;;;;;;;10.08;100.00;100733.47;4868955;29;20075;-82
2023/02/17 08:19:11;;;;;;;21.58;15.93;;;;;;;10.02;100.00;100738.72;4884234;29;20048;-79
2023/02/17 08:21:37;;;;;;;19.83;14.52;;;;;;;10.06;100.00;100727.34;4881524;29;20040;-81
2023/02/17 08:24:04;;;;;;;21.50;14.50;;;;;;;10.14;100.00;100712.47;4882959;29;20052;-80
2023/02/17 08:26:31;;;;;;;19.65;13.18;;;;;;;10.14;100.00;100725.53;4883027;29;20543;-80
2023/02/17 08:28:57;;;;;;;17.05;13.35;;;;;;;10.12;100.00;100731.66;4901621;29;20052;-78
2023/02/17 08:31:30;;;;;;;16.98;13.75;;;;;;;10.14;100.00;100706.38;4879906;29;20047;-82
2023/02/17 08:33:58;;;;;;;17.08;13.93;;;;;;;10.12;100.00;100714.25;4870439;29;20155;-78
2023/02/17 08:36:24;;;;;;;21.05;14.30;;;;;;;10.13;100.00;100713.38;4883743;29;20407;-80
2023/02/17 08:38:54;;;;;;;21.73;14.20;;;;;;;10.13;100.00;100717.72;4861535;29;20044;-79
2023/02/17 08:41:29;;;;;;;18.38;14.07;;;;;;;10.13;100.00;100705.53;4884205;29;20052;-78
2023/02/17 08:43:59;;;;;;;19.35;13.27;;;;;;;10.13;100.00;100707.25;4880086;29;20127;-80
2023/02/17 08:46:30;;;;;;;19.42;13.75;;;;;;;10.13;100.00;100702.91;4881470;29;21131;-79
2023/02/17 08:48:59;;;;;;;16.67;12.68;;;;;;;10.14;100.00;100695.91;4880506;29;20072;-79
2023/02/17 08:51:27;;;;;;;20.75;12.32;;;;;;;10.18;100.00;100692.41;4901515;29;20065;-82
2023/02/17 08:53:59;;;;;;;14.55;11.65;;;;;;;10.20;100.00;100688.03;4879958;29;20049;-79
2023/02/17 08:56:34;;;;;;;16.45;12.40;;;;;;;10.21;100.00;100684.56;4896842;29;20048;-79
2023/02/17 08:59:01;;;;;;;15.48;11.43;;;;;;;10.20;100.00;100665.34;4881754;29;20055;-79
2023/02/17 09:01:32;;;;;;;16.98;12.82;;;;;;;10.24;100.00;100692.38;4860554;29;20044;-81
2023/02/17 09:04:01;;;;;;;16.73;11.23;;;;;;;10.27;100.00;100687.09;4880511;29;20127;-79
2023/02/17 09:06:47;;;;;;;15.50;11.77;;;;;;;10.26;100.00;100688.00;4878188;29;20040;-78
2023/02/17 09:09:18;;;;;;;17.50;11.93;;;;;;;10.30;100.00;100684.47;4881529;29;20492;-82
2023/02/17 09:15:48;;;;;;;13.48;9.70;;;;;;;10.39;100.00;100660.00;4895111;29;20055;-80
2023/02/17 09:18:17;;;;;;;13.30;8.98;;;;;;;10.39;100.00;100683.56;4900775;29;20096;-80
2023/02/17 09:20:47;;;;;;;10.98;8.73;;;;;;;10.38;100.00;100676.59;4900522;29;20413;-80
2023/02/17 09:23:17;;;;;;;16.35;9.70;;;;;;;10.38;100.00;100664.38;4887662;29;20044;-77
2023/02/17 09:25:47;;;;;;;10.50;8.07;;;;;;;10.40;100.00;100685.28;4901048;29;20055;-78
2023/02/17 09:28:14;;;;;;;9.55;8.15;;;;;;;10.44;100.00;100681.78;4880008;29;20068;-82
2023/02/17 09:30:42;;;;;;;9.23;7.30;;;;;;;10.42;100.00;100694.88;4892729;29;20044;-80
2023/02/17 09:33:09;;;;;;;10.23;7.68;;;;;;;10.46;100.00;100664.31;4882352;29;20055;-79
2023/02/17 09:35:41;;;;;;;9.52;7.78;;;;;;;10.43;100.00;100659.97;4904987;29;20194;-80
2023/02/17 09:38:11;;;;;;;10.48;7.55;;;;;;;10.43;100.00;100664.34;4870609;29;20832;-78
2023/02/17 09:40:50;;;;;;;9.82;7.57;;;;;;;10.48;100.00;100662.56;4883467;29;20037;-79
2023/02/17 09:43:29;;;;;;;12.10;8.55;;;;;;;10.50;100.00;100665.16;4884626;29;20066;-79
2023/02/17 09:46:08;;;;;;;11.73;7.93;;;;;;;10.51;100.00;100664.28;4905591;29;20322;-82
2023/02/17 09:48:37;;;;;;;9.70;7.97;;;;;;;10.47;100.00;100681.75;4892536;29;20060;-82
2023/02/17 09:56:03;;;;;;;9.50;8.00;;;;;;;10.50;100.00;100660.78;4833091;29;20056;-85
2023/02/17 09:58:32;;;;;;;9.52;8.18;;;;;;;10.56;100.00;100660.75;4882492;29;20084;-81
2023/02/17 10:01:04;;;;;;;10.32;7.45;;;;;;;10.52;100.00;100666.00;4887133;29;20052;-79
2023/02/17 10:03:51;;;;;;;12.13;8.52;;;;;;;10.50;100.00;100665.16;4873663;29;20056;-79
2023/02/17 10:06:29;;;;;;;13.05;7.95;;;;;;;10.49;100.00;100638.09;4899075;29;20495;-78
2023/02/17 10:09:12;;;;;;;11.65;8.80;;;;;;;10.58;100.00;100648.50;4884717;29;20063;-77
2023/02/17 10:11:44;;;;;;;12.52;8.43;;;;;;;10.59;100.00;100633.66;4897170;29;20194;-77
2023/02/17 10:14:29;;;;;;;14.82;9.05;;;;;;;10.55;100.00;100640.69;4887770;29;20483;-80
2023/02/17 10:17:17;;;;;;;12.73;9.75;;;;;;;10.55;100.00;100634.59;4900896;29;20048;-78
2023/02/17 10:20:05;;;;;;;16.27;9.85;;;;;;;10.56;100.00;100633.72;4887029;29;20079;-81
2023/02/17 10:22:33;;;;;;;15.07;10.80;;;;;;;10.56;100.00;100641.56;4885136;29;20058;-80
2023/02/17 10:25:03;;;;;;;13.73;10.13;;;;;;;10.49;100.00;100637.25;4880565;29;20150;-77
2023/02/17 10:27:55;;;;;;;14.40;10.40;;;;;;;10.55;100.00;100642.44;4871717;29;20183;-77
2023/02/17 10:30:52;;;;;;;15.02;10.85;;;;;;;10.49;100.00;100653.81;4882979;29;20055;-78
2023/02/17 10:33:29;;;;;;;15.98;11.40;;;;;;;10.51;100.00;100654.69;4881637;29;20051;-78
2023/02/17 10:36:07;;;;;;;16.00;11.75;;;;;;;10.51;100.00;100654.69;4886208;29;20498;-78
2023/02/17 10:39:01;;;;;;;16.55;12.43;;;;;;;10.55;100.00;100631.97;4901456;29;20044;-80
2023/02/17 10:41:35;;;;;;;16.48;12.18;;;;;;;10.58;100.00;100664.19;4898419;29;20068;-78
2023/02/17 10:44:07;;;;;;;15.85;12.05;;;;;;;10.58;100.00;100651.09;4884770;29;20408;-79
2023/02/17 10:46:34;;;;;;;16.17;12.60;;;;;;;10.68;100.00;100641.44;4882130;29;20537;-79
2023/02/17 10:49:01;;;;;;;20.00;13.35;;;;;;;10.69;100.00;100626.59;4867719;29;20045;-77
2023/02/17 10:51:31;;;;;;;17.83;14.20;;;;;;;10.75;100.00;100622.19;4865895;29;20036;-77
2023/02/17 10:54:17;;;;;;;19.23;13.45;;;;;;;10.80;100.00;100634.34;4881792;29;20047;-84
2023/02/17 10:56:50;;;;;;;19.52;14.43;;;;;;;10.85;100.00;100624.69;4868789;29;20135;-78
2023/02/17 10:59:24;;;;;;;19.20;15.18;;;;;;;10.87;100.00;100629.03;4883446;29;20059;-79
2023/02/17 11:01:51;;;;;;;31.88;16.15;;;;;;;10.96;100.00;100606.25;4877494;29;20059;-79
2023/02/17 11:04:18;;;;;;;20.73;14.68;;;;;;;11.00;100.00;100600.06;4868700;29;20399;-79
2023/02/17 11:06:54;;;;;;;22.98;14.52;;;;;;;10.98;100.00;100610.56;4883704;29;20111;-80
2023/02/17 11:09:31;;;;;;;21.20;15.05;;;;;;;11.02;100.00;100608.78;4883320;29;20074;-76
2023/02/17 11:12:00;;;;;;;22.73;15.52;;;;;;;11.14;100.00;100613.03;4886487;29;20048;-80
2023/02/17 11:14:33;;;;;;;20.27;14.38;;;;;;;11.17;100.00;100599.88;4878511;29;20439;-82
2023/02/17 11:17:03;;;;;;;22.70;15.70;;;;;;;11.19;100.00;100606.84;4898315;29;21272;-82
2023/02/17 11:19:33;;;;;;;20.10;14.82;;;;;;;11.27;100.00;100606.75;4877714;29;20144;-80
2023/02/17 11:22:03;;;;;;;21.75;14.27;;;;;;;11.31;100.00;100587.47;4883693;29;20051;-79
2023/02/17 11:24:33;;;;;;;21.75;15.85;;;;;;;11.42;100.00;100585.56;4882090;29;20039;-78
2023/02/17 11:27:05;;;;;;;23.10;15.27;;;;;;;11.58;100.00;100564.38;4882925;29;20052;-78
2023/02/17 11:29:32;;;;;;;18.98;14.88;;;;;;;11.73;100.00;100571.16;4881489;29;20598;-77
2023/02/17 11:32:12;;;;;;;19.27;14.32;;;;;;;11.96;100.00;100549.84;4881280;29;20041;-77
2023/02/17 11:34:43;;;;;;;18.45;13.40;;;;;;;12.17;99.14;100561.72;4886816;29;20041;-78
2023/02/17 11:37:09;;;;;;;19.08;13.32;;;;;;;12.27;98.41;100582.56;4900141;29;20512;-77
2023/02/17 11:39:46;;;;;;;15.50;12.82;;;;;;;12.25;97.17;100572.09;4898952;29;20506;-78
2023/02/17 11:42:24;;;;;;;19.48;13.00;;;;;;;12.17;96.22;100559.09;4880565;29;20044;-81
2023/02/17 11:44:52;;;;;;;16.10;12.02;;;;;;;12.12;96.38;100558.31;4885876;29;20043;-77
2023/02/17 11:47:52;;;;;;;20.08;12.48;;;;;;;12.20;96.22;100542.44;4883648;29;20040;-78